createdAt,value
2022-08-08T00:00:53.657Z,2.28
2022-08-08T00:02:58.583Z,2.78
2022-08-08T00:05:44.367Z,2.90
2022-08-08T00:08:27.301Z,2.83
2022-08-08T00:11:00.723Z,2.60
2022-08-08T00:14:17.294Z,2.40
2022-08-08T00:16:41.197Z,2.92
2022-08-08T00:19:19.658Z,2.60
2022-08-08T00:21:57.094Z,2.67
2022-08-08T00:24:30.307Z,2.53
2022-08-08T00:27:05.827Z,2.30
2022-08-08T00:29:45.032Z,2.67
2022-08-08T00:32:34.325Z,2.85
2022-08-08T00:35:30.100Z,2.50
2022-08-08T00:38:32.199Z,2.22
2022-08-08T00:42:08.943Z,2.35
2022-08-08T00:45:21.647Z,2.30
2022-08-08T00:48:29.813Z,2.90
2022-08-08T00:51:39.163Z,2.58
2022-08-08T00:54:42.596Z,2.22
2022-08-08T00:57:42.563Z,2.60
2022-08-08T01:00:13.614Z,2.25
2022-08-08T01:04:02.283Z,2.60
2022-08-08T01:06:48.175Z,2.85
2022-08-08T01:09:49.013Z,2.67
2022-08-08T01:12:55.360Z,2.60
2022-08-08T01:16:08.626Z,2.70
2022-08-08T01:19:25.339Z,2.72
2022-08-08T01:22:36.592Z,2.75
2022-08-08T01:25:54.117Z,2.63
2022-08-08T01:28:47.239Z,2.78
2022-08-08T01:32:12.796Z,2.53
2022-08-08T01:35:11.840Z,2.65
2022-08-08T01:38:31.352Z,2.80
2022-08-08T01:41:05.847Z,2.72
2022-08-08T01:43:50.509Z,2.30
2022-08-08T01:46:44.044Z,3.53
2022-08-08T01:49:23.376Z,2.67
2022-08-08T01:53:01.100Z,2.70
2022-08-08T01:56:25.976Z,2.80
2022-08-08T01:58:38.919Z,3.00
2022-08-08T02:01:20.387Z,2.90
2022-08-08T02:04:03.337Z,2.75
2022-08-08T02:06:53.079Z,3.20
2022-08-08T02:10:02.055Z,3.10
2022-08-08T02:12:27.342Z,3.47
2022-08-08T02:15:04.198Z,3.28
2022-08-08T02:17:57.547Z,3.22
2022-08-08T02:21:02.171Z,3.58
2022-08-08T02:23:31.651Z,3.88
2022-08-08T02:26:09.979Z,3.30
2022-08-08T02:28:51.690Z,3.80
2022-08-08T02:31:59.623Z,3.30
2022-08-08T02:35:08.527Z,3.30
2022-08-08T02:37:57.071Z,2.85
2022-08-08T02:40:39.152Z,3.33
2022-08-08T02:44:37.347Z,3.10
2022-08-08T02:46:53.882Z,3.75
2022-08-08T02:49:52.455Z,3.00
2022-08-08T02:52:50.339Z,3.33
2022-08-08T02:55:44.675Z,3.30
2022-08-08T03:01:50.077Z,3.30
2022-08-08T03:05:03.296Z,3.40
2022-08-08T03:08:14.038Z,3.17
2022-08-08T03:11:47.397Z,2.90
2022-08-08T03:16:00.048Z,3.17
2022-08-08T03:17:40.684Z,3.08
2022-08-08T03:20:11.401Z,3.15
2022-08-08T03:22:46.184Z,3.30
2022-08-08T03:25:18.793Z,3.03
2022-08-08T03:27:56.427Z,3.35
2022-08-08T03:30:25.572Z,3.13
2022-08-08T03:33:55.430Z,3.17
2022-08-08T03:35:59.934Z,3.38
2022-08-08T03:38:57.648Z,3.50
2022-08-08T03:42:12.711Z,3.88
2022-08-08T03:44:06.539Z,3.03
2022-08-08T03:46:47.195Z,3.30
2022-08-08T03:49:57.464Z,3.70
2022-08-08T03:52:08.266Z,3.00
2022-08-08T03:55:01.557Z,3.78
2022-08-08T03:58:33.247Z,3.35
2022-08-08T04:00:21.650Z,3.78
2022-08-08T04:02:59.276Z,3.45
2022-08-08T04:05:29.177Z,3.70
2022-08-08T04:07:58.040Z,3.47
2022-08-08T04:10:31.945Z,3.53
2022-08-08T04:13:00.615Z,3.80
2022-08-08T04:15:38.580Z,3.90
2022-08-08T04:18:09.321Z,3.67
2022-08-08T04:20:44.408Z,3.53
2022-08-08T04:23:15.434Z,3.67
2022-08-08T04:25:44.779Z,3.88
2022-08-08T04:28:37.293Z,4.03
2022-08-08T04:31:06.063Z,3.55
2022-08-08T04:33:41.497Z,3.63
2022-08-08T04:36:09.977Z,4.15
2022-08-08T04:38:38.410Z,3.30
2022-08-08T04:41:18.064Z,4.20
2022-08-08T04:43:54.283Z,3.30
2022-08-08T04:46:25.300Z,3.60
2022-08-08T04:48:58.819Z,3.58
2022-08-08T04:51:28.119Z,3.40
2022-08-08T04:54:39.590Z,4.05
2022-08-08T04:57:03.349Z,3.75
2022-08-08T04:59:31.732Z,4.00
2022-08-08T05:02:10.162Z,3.85
2022-08-08T05:04:41.960Z,4.20
2022-08-08T05:07:14.923Z,3.78
2022-08-08T05:09:43.329Z,3.88
2022-08-08T05:12:21.076Z,4.35
2022-08-08T05:14:49.210Z,3.75
2022-08-08T05:17:20.097Z,3.90
2022-08-08T05:20:12.227Z,4.45
2022-08-08T05:22:37.004Z,4.30
2022-08-08T05:25:05.647Z,4.28
2022-08-08T05:27:41.496Z,3.70
2022-08-08T05:30:11.061Z,3.58
2022-08-08T05:32:39.401Z,4.07
2022-08-08T05:35:09.620Z,4.25
2022-08-08T05:37:53.193Z,4.22
2022-08-08T05:40:28.544Z,4.28
2022-08-08T05:43:03.248Z,3.97
2022-08-08T05:45:53.125Z,3.65
2022-08-08T05:48:28.476Z,4.03
2022-08-08T05:51:13.591Z,3.47
2022-08-08T05:54:26.083Z,3.78
2022-08-08T05:56:38.580Z,4.03
2022-08-08T05:59:17.138Z,3.85
2022-08-08T06:02:29.019Z,4.15
2022-08-08T06:05:02.213Z,4.13
2022-08-08T06:07:34.927Z,3.88
2022-08-08T06:10:06.303Z,4.20
2022-08-08T06:12:36.475Z,3.75
2022-08-08T06:15:09.180Z,3.40
2022-08-08T06:18:18.095Z,3.38
2022-08-08T06:20:32.055Z,4.25
2022-08-08T06:23:00.955Z,3.45
2022-08-08T06:26:36.176Z,3.40
2022-08-08T06:28:28.970Z,3.22
2022-08-08T06:31:00.810Z,3.40
2022-08-08T06:34:25.687Z,3.50
2022-08-08T06:36:32.819Z,3.47
2022-08-08T06:39:06.794Z,3.40
2022-08-08T06:41:39.207Z,3.38
2022-08-08T06:44:12.077Z,3.33
2022-08-08T06:46:47.808Z,4.00
2022-08-08T06:49:17.870Z,3.47
2022-08-08T06:51:58.018Z,3.65
2022-08-08T06:54:26.930Z,3.90
2022-08-08T06:56:55.579Z,3.75
2022-08-08T06:59:24.010Z,4.70
2022-08-08T07:02:26.941Z,4.30
2022-08-08T07:04:55.110Z,4.60
2022-08-08T07:07:37.150Z,4.60
2022-08-08T07:10:08.088Z,4.75
2022-08-08T07:12:41.028Z,3.53
2022-08-08T07:15:32.157Z,3.58
2022-08-08T07:18:36.191Z,3.50
2022-08-08T07:21:02.259Z,3.10
2022-08-08T07:24:01.221Z,3.40
2022-08-08T07:26:35.123Z,3.35
2022-08-08T07:29:08.216Z,3.47
2022-08-08T07:31:39.542Z,3.50
2022-08-08T07:34:26.801Z,3.60
2022-08-08T07:37:00.611Z,3.92
2022-08-08T07:39:45.207Z,4.07
2022-08-08T07:42:21.788Z,3.42
2022-08-08T07:45:01.986Z,3.38
2022-08-08T07:47:38.516Z,4.25
2022-08-08T07:50:10.329Z,3.60
2022-08-08T07:52:43.956Z,3.42
2022-08-08T07:55:28.655Z,3.17
2022-08-08T07:58:05.545Z,3.30
2022-08-08T08:00:41.186Z,4.05
2022-08-08T08:03:20.630Z,3.63
2022-08-08T08:05:57.640Z,3.55
2022-08-08T08:08:28.364Z,3.88
2022-08-08T08:11:00.410Z,3.53
2022-08-08T08:13:42.657Z,3.40
2022-08-08T08:16:27.713Z,2.90
2022-08-08T08:19:01.265Z,2.80
2022-08-08T08:21:44.924Z,3.22
2022-08-08T08:24:30.637Z,3.30
2022-08-08T08:27:02.956Z,3.17
2022-08-08T08:29:31.365Z,3.08
2022-08-08T08:32:03.273Z,3.10
2022-08-08T08:34:33.723Z,3.20
2022-08-08T08:37:07.517Z,3.75
2022-08-08T08:40:00.277Z,3.63
2022-08-08T08:42:29.008Z,3.08
2022-08-08T08:45:01.492Z,3.35
2022-08-08T08:47:45.403Z,3.72
2022-08-08T08:50:31.868Z,3.13
2022-08-08T08:53:27.953Z,2.70
2022-08-08T08:55:55.003Z,3.30
2022-08-08T08:58:31.672Z,2.90
2022-08-08T09:01:10.439Z,3.25
2022-08-08T09:03:47.425Z,3.55
2022-08-08T09:06:26.384Z,3.17
2022-08-08T09:09:03.706Z,3.00
2022-08-08T09:11:35.306Z,2.70
2022-08-08T09:14:16.694Z,2.83
2022-08-08T09:16:47.729Z,2.70
2022-08-08T09:21:53.546Z,2.40
2022-08-08T09:22:07.599Z,2.13
2022-08-08T09:24:37.091Z,2.50
2022-08-08T09:27:14.875Z,2.67
2022-08-08T09:29:53.578Z,2.70
2022-08-08T09:32:36.989Z,2.72
2022-08-08T09:35:08.900Z,2.67
2022-08-08T09:38:00.772Z,2.95
2022-08-08T09:40:47.762Z,3.05
2022-08-08T09:43:41.137Z,2.75
2022-08-08T09:46:30.419Z,2.95
2022-08-08T09:49:17.999Z,3.30
2022-08-08T09:52:06.486Z,2.75
2022-08-08T09:54:42.049Z,2.72
2022-08-08T09:57:16.115Z,2.97
2022-08-08T10:00:28.864Z,3.13
2022-08-08T10:02:44.996Z,2.60
2022-08-08T10:05:15.640Z,3.17
2022-08-08T10:08:00.537Z,3.25
2022-08-08T10:10:31.862Z,3.65
2022-08-08T10:13:14.366Z,3.25
2022-08-08T10:16:00.702Z,3.10
2022-08-08T10:18:31.325Z,2.70
2022-08-08T10:21:23.295Z,3.17
2022-08-08T10:23:58.625Z,3.10
2022-08-08T10:26:56.749Z,3.15
2022-08-08T10:29:56.793Z,3.10
2022-08-08T10:32:39.057Z,2.70
2022-08-08T10:35:11.775Z,2.97
2022-08-08T10:37:56.413Z,3.53
2022-08-08T10:40:30.841Z,3.35
2022-08-08T10:43:02.027Z,2.83
2022-08-08T10:45:41.188Z,3.60
2022-08-08T10:48:12.604Z,3.40
2022-08-08T10:50:42.515Z,3.38
2022-08-08T10:53:12.806Z,3.55
2022-08-08T10:55:46.815Z,3.30
2022-08-08T10:58:15.585Z,3.75
2022-08-08T11:00:52.663Z,3.28
2022-08-08T11:04:00.668Z,2.97
2022-08-08T11:06:31.324Z,3.30
2022-08-08T11:09:09.690Z,3.53
2022-08-08T11:12:06.556Z,3.40
2022-08-08T11:14:32.902Z,3.50
2022-08-08T11:17:02.123Z,3.10
2022-08-08T11:19:31.699Z,3.45
2022-08-08T11:22:04.190Z,2.75
2022-08-08T11:24:36.954Z,3.25
2022-08-08T11:27:19.176Z,3.08
2022-08-08T11:30:04.108Z,3.20
2022-08-08T11:32:47.589Z,3.17
2022-08-08T11:35:27.460Z,3.25
2022-08-08T11:38:39.784Z,3.17
2022-08-08T11:40:53.151Z,2.60
2022-08-08T11:43:23.757Z,3.03
2022-08-08T11:46:09.738Z,3.20
2022-08-08T11:48:44.894Z,3.05
2022-08-08T11:51:37.902Z,3.28
2022-08-08T11:54:05.050Z,2.67
2022-08-08T11:56:56.350Z,2.83
2022-08-08T12:00:00.356Z,3.10
2022-08-08T12:02:32.202Z,2.83
2022-08-08T12:05:07.338Z,2.88
2022-08-08T12:07:49.685Z,3.28
2022-08-08T12:10:21.361Z,2.80
2022-08-08T12:12:51.872Z,2.70
2022-08-08T12:15:30.586Z,3.80
2022-08-08T12:18:17.996Z,2.85
2022-08-08T12:20:50.656Z,2.70
2022-08-08T12:23:43.289Z,2.70
2022-08-08T12:26:27.969Z,2.80
2022-08-08T12:29:21.236Z,2.80
2022-08-08T12:32:02.887Z,2.42
2022-08-08T12:34:38.303Z,2.72
2022-08-08T12:37:11.242Z,2.80
2022-08-08T12:39:40.318Z,2.75
2022-08-08T12:42:33.979Z,2.80
2022-08-08T12:45:53.866Z,3.10
2022-08-08T12:48:09.665Z,3.10
2022-08-08T12:50:47.955Z,2.80
2022-08-08T12:53:42.223Z,3.03
2022-08-08T12:56:18.788Z,2.80
2022-08-08T12:58:50.589Z,2.83
2022-08-08T13:01:28.817Z,2.80
2022-08-08T13:04:19.009Z,2.80
2022-08-08T13:07:01.235Z,3.20
2022-08-08T13:10:00.646Z,3.20
2022-08-08T13:12:29.741Z,3.95
2022-08-08T13:14:58.765Z,3.15
2022-08-08T13:18:09.970Z,2.65
2022-08-08T13:20:17.396Z,2.72
2022-08-08T13:22:46.996Z,3.00
2022-08-08T13:25:17.845Z,2.83
2022-08-08T13:27:53.272Z,2.45
2022-08-08T13:30:26.132Z,3.33
2022-08-08T13:32:56.258Z,2.83
2022-08-08T13:35:29.525Z,2.80
2022-08-08T13:38:08.474Z,3.00
2022-08-08T13:40:44.643Z,2.60
2022-08-08T13:43:14.066Z,2.70
2022-08-08T13:45:47.298Z,3.10
2022-08-08T13:48:17.030Z,2.67
2022-08-08T13:50:53.831Z,2.78
2022-08-08T13:53:27.996Z,3.20
2022-08-08T13:56:02.327Z,2.70
2022-08-08T13:58:30.875Z,2.80
2022-08-08T14:00:58.626Z,2.50
2022-08-08T14:03:52.998Z,2.50
2022-08-08T14:06:20.500Z,2.33
2022-08-08T14:09:24.278Z,2.55
2022-08-08T14:11:51.283Z,2.78
2022-08-08T14:14:21.168Z,2.80
2022-08-08T14:16:55.413Z,2.60
2022-08-08T14:19:57.576Z,2.92
2022-08-08T14:22:24.241Z,2.80
2022-08-08T14:24:55.868Z,3.20
2022-08-08T14:27:30.339Z,3.00
2022-08-08T14:30:08.251Z,7.25
2022-08-08T14:32:52.652Z,2.80
2022-08-08T14:35:22.531Z,2.90
2022-08-08T14:37:59.638Z,2.60
2022-08-08T14:40:29.926Z,2.28
2022-08-08T14:43:01.573Z,2.42
2022-08-08T14:45:46.788Z,2.50
2022-08-08T14:48:34.408Z,2.40
2022-08-08T14:51:07.696Z,2.20
2022-08-08T14:53:55.981Z,2.10
2022-08-08T14:56:29.397Z,2.00
2022-08-08T14:58:58.649Z,2.13
2022-08-08T15:01:37.569Z,2.35
2022-08-08T15:04:09.571Z,2.13
2022-08-08T15:06:39.019Z,2.28
2022-08-08T15:09:07.782Z,2.22
2022-08-08T15:11:43.326Z,1.90
2022-08-08T15:14:25.280Z,2.30
2022-08-08T15:16:55.011Z,2.20
2022-08-08T15:19:27.844Z,2.03
2022-08-08T15:21:57.786Z,1.98
2022-08-08T15:24:31.269Z,1.90
2022-08-08T15:27:11.980Z,2.13
2022-08-08T15:29:49.414Z,2.10
2022-08-08T15:32:30.565Z,2.13
2022-08-08T15:35:00.203Z,2.00
2022-08-08T15:37:28.575Z,2.13
2022-08-08T15:39:59.160Z,1.88
2022-08-08T15:42:32.577Z,1.95
2022-08-08T15:45:03.198Z,1.95
2022-08-08T15:47:32.160Z,1.90
2022-08-08T15:49:59.998Z,2.15
2022-08-08T15:52:27.787Z,2.40
2022-08-08T15:54:55.523Z,2.22
2022-08-08T15:57:23.548Z,2.20
2022-08-08T16:00:05.882Z,2.20
2022-08-08T16:02:44.189Z,2.85
2022-08-08T16:05:18.916Z,2.50
2022-08-08T16:07:52.730Z,2.88
2022-08-08T16:13:08.968Z,2.03
2022-08-08T16:13:30.298Z,2.67
2022-08-08T16:16:09.196Z,2.30
2022-08-08T16:18:44.604Z,2.40
2022-08-08T16:21:27.660Z,2.85
2022-08-08T16:23:56.368Z,2.45
2022-08-08T16:26:34.108Z,2.63
2022-08-08T16:29:08.182Z,2.40
2022-08-08T16:31:40.888Z,2.30
2022-08-08T16:34:11.301Z,2.22
2022-08-08T16:36:40.811Z,2.50
2022-08-08T16:39:28.171Z,2.40
2022-08-08T16:42:00.806Z,2.33
2022-08-08T16:44:33.769Z,2.22
2022-08-08T16:47:16.621Z,2.20
2022-08-08T16:49:47.761Z,2.20
2022-08-08T16:55:05.576Z,2.10
2022-08-08T16:55:42.820Z,2.30
2022-08-08T16:58:15.173Z,2.67
2022-08-08T17:00:48.747Z,2.78
2022-08-08T17:03:24.398Z,2.60
2022-08-08T17:05:56.407Z,2.50
2022-08-08T17:08:24.128Z,2.40
2022-08-08T17:10:58.206Z,2.97
2022-08-08T17:13:41.405Z,2.78
2022-08-08T17:16:17.617Z,2.67
2022-08-08T17:18:49.871Z,3.08
2022-08-08T17:21:21.372Z,2.58
2022-08-08T17:23:58.129Z,2.90
2022-08-08T17:26:28.748Z,3.50
2022-08-08T17:28:58.664Z,2.95
2022-08-08T17:31:44.643Z,3.00
2022-08-08T17:34:36.855Z,3.30
2022-08-08T17:37:06.606Z,3.35
2022-08-08T17:40:03.091Z,3.35
2022-08-08T17:42:25.929Z,3.20
2022-08-08T17:44:54.417Z,3.63
2022-08-08T17:47:23.910Z,3.70
2022-08-08T17:50:07.755Z,3.00
2022-08-08T17:52:38.026Z,2.92
2022-08-08T17:56:03.638Z,3.75
2022-08-08T17:57:54.974Z,3.20
2022-08-08T18:00:25.821Z,3.20
2022-08-08T18:03:07.405Z,3.03
2022-08-08T18:05:48.147Z,3.13
2022-08-08T18:08:25.185Z,3.67
2022-08-08T18:11:09.248Z,3.05
2022-08-08T18:13:42.066Z,3.15
2022-08-08T18:16:10.220Z,3.28
2022-08-08T18:18:43.011Z,3.13
2022-08-08T18:21:34.900Z,3.05
2022-08-08T18:24:17.447Z,2.85
2022-08-08T18:26:53.730Z,2.70
2022-08-08T18:29:29.750Z,3.05
2022-08-08T18:32:00.652Z,2.72
2022-08-08T18:34:32.866Z,2.78
2022-08-08T18:37:04.676Z,3.00
2022-08-08T18:39:36.423Z,2.60
2022-08-08T18:42:06.169Z,2.78
2022-08-08T18:44:42.109Z,3.78
2022-08-08T18:47:09.910Z,2.95
2022-08-08T18:49:49.136Z,3.25
2022-08-08T18:52:25.778Z,2.83
2022-08-08T18:54:59.142Z,3.20
2022-08-08T18:57:28.174Z,2.80
2022-08-08T19:00:00.677Z,3.00
2022-08-08T19:02:30.065Z,2.60
2022-08-08T19:04:57.911Z,2.92
2022-08-08T19:07:29.629Z,3.33
2022-08-08T19:10:15.380Z,3.20
2022-08-08T19:12:44.740Z,3.40
2022-08-08T19:15:21.797Z,3.15
2022-08-08T19:18:31.306Z,2.92
2022-08-08T19:20:43.033Z,3.03
2022-08-08T19:23:14.675Z,2.92
2022-08-08T19:26:20.501Z,3.25
2022-08-08T19:28:33.654Z,3.00
2022-08-08T19:31:09.165Z,3.15
2022-08-08T19:33:39.458Z,2.90
2022-08-08T19:36:27.697Z,3.13
2022-08-08T19:38:56.152Z,3.45
2022-08-08T19:41:29.545Z,3.00
2022-08-08T19:44:03.558Z,3.08
2022-08-08T19:46:40.287Z,3.70
2022-08-08T19:49:09.721Z,3.13
2022-08-08T19:51:44.026Z,3.28
2022-08-08T19:54:13.316Z,3.92
2022-08-08T19:56:48.887Z,3.10
2022-08-08T19:59:22.089Z,3.50
2022-08-08T20:02:03.339Z,3.42
2022-08-08T20:04:33.027Z,3.00
2022-08-08T20:07:05.236Z,3.60
2022-08-08T20:09:56.130Z,2.60
2022-08-08T20:12:34.435Z,3.30
2022-08-08T20:15:14.589Z,3.60
2022-08-08T20:17:46.374Z,3.10
2022-08-08T20:20:19.686Z,3.95
2022-08-08T20:22:53.912Z,3.80
2022-08-08T20:25:26.538Z,3.30
2022-08-08T20:28:06.521Z,2.90
2022-08-08T20:30:55.840Z,3.00
2022-08-08T20:35:58.029Z,2.92
2022-08-08T20:38:32.071Z,2.85
2022-08-08T20:41:01.106Z,2.80
2022-08-08T20:43:43.490Z,3.10
2022-08-08T20:46:16.017Z,2.80
2022-08-08T20:48:45.443Z,2.83
2022-08-08T20:51:14.442Z,2.90
2022-08-08T20:54:00.726Z,2.80
2022-08-08T20:56:35.184Z,2.90
2022-08-08T20:59:08.964Z,2.75
2022-08-08T21:01:44.153Z,3.13
2022-08-08T21:04:27.714Z,2.50
2022-08-08T21:06:55.754Z,3.22
2022-08-08T21:09:23.748Z,4.03
2022-08-08T21:12:03.252Z,2.90
2022-08-08T21:14:34.685Z,2.72
2022-08-08T21:17:06.349Z,2.60
2022-08-08T21:19:45.979Z,2.53
2022-08-08T21:22:16.093Z,3.05
2022-08-08T21:24:53.030Z,2.60
2022-08-08T21:28:06.615Z,2.80
2022-08-08T21:30:18.713Z,2.80
2022-08-08T21:32:51.194Z,2.72
2022-08-08T21:36:17.032Z,2.88
2022-08-08T21:38:11.870Z,3.30
2022-08-08T21:40:56.055Z,2.83
2022-08-08T21:43:24.500Z,2.85
2022-08-08T21:48:08.837Z,2.92
2022-08-08T21:48:49.322Z,2.90
2022-08-08T21:51:31.692Z,2.90
2022-08-08T21:54:31.635Z,2.83
2022-08-08T21:56:59.118Z,2.80
2022-08-08T21:59:43.875Z,2.97
2022-08-08T22:02:19.605Z,2.72
2022-08-08T22:04:52.306Z,2.92
2022-08-08T22:07:20.066Z,2.72
2022-08-08T22:09:55.069Z,2.53
2022-08-08T22:12:22.819Z,2.63
2022-08-08T22:14:53.068Z,2.22
2022-08-08T22:17:22.163Z,2.53
2022-08-08T22:20:10.741Z,2.58
2022-08-08T22:22:38.735Z,2.40
2022-08-08T22:25:24.467Z,2.88
2022-08-08T22:28:02.693Z,2.58
2022-08-08T22:30:41.522Z,2.92
2022-08-08T22:33:22.189Z,2.80
2022-08-08T22:36:04.365Z,2.85
2022-08-08T22:38:47.955Z,2.70
2022-08-08T22:41:21.131Z,2.45
2022-08-08T22:44:05.654Z,2.83
2022-08-08T22:46:34.487Z,3.10
2022-08-08T22:49:09.023Z,2.60
2022-08-08T22:51:42.743Z,2.92
2022-08-08T22:54:30.675Z,2.85
2022-08-08T22:57:11.591Z,2.88
2022-08-08T22:59:59.077Z,2.75
2022-08-08T23:02:28.952Z,2.65
2022-08-08T23:04:58.562Z,2.85
2022-08-08T23:07:57.097Z,2.55
2022-08-08T23:10:25.297Z,2.60
2022-08-08T23:12:54.463Z,2.80
2022-08-08T23:16:41.549Z,3.10
2022-08-08T23:18:11.521Z,2.92
2022-08-08T23:20:43.391Z,2.63
2022-08-08T23:23:12.106Z,2.90
2022-08-08T23:25:48.551Z,2.67
2022-08-08T23:28:18.038Z,2.70
2022-08-08T23:30:47.178Z,3.22
2022-08-08T23:33:19.192Z,2.83
2022-08-08T23:36:06.754Z,2.90
2022-08-08T23:38:44.073Z,2.85
2022-08-08T23:41:22.812Z,2.85
2022-08-08T23:43:54.373Z,2.60
2022-08-08T23:49:04.025Z,2.90
2022-08-08T23:49:14.816Z,2.92
2022-08-08T23:52:07.297Z,3.17
2022-08-08T23:54:43.599Z,3.20
2022-08-08T23:57:26.869Z,3.28
